Time;durP1;ratioP1;P1;durP2;ratioP2;P2;SDS_P1;SDS_P2;PMS_P1;PMS_P2;Temp;Humidity;BMP_temperature;BMP_pressure;BME280_temperature;BME280_humidity;BME280_pressure;Samples;Min_cycle;Max_cycle;Signal;HPM_P1;HPM_P2
2022/06/21 00:02:21;;;;;;;3.47;2.50;;;;;;;10.91;100.00;100487.09;5060503;28;20230;-74
2022/06/21 00:04:48;;;;;;;3.87;2.50;;;;;;;10.85;100.00;100485.50;5061723;28;20211;-74
2022/06/21 00:07:21;;;;;;;4.60;2.60;;;;;;;10.82;100.00;100488.22;5064726;28;20198;-74
2022/06/21 00:09:48;;;;;;;4.00;2.53;;;;;;;10.80;100.00;100485.66;5058008;28;20609;-74
2022/06/21 00:12:14;;;;;;;2.50;2.30;;;;;;;10.75;100.00;100484.09;5061868;28;20582;-74
2022/06/21 00:14:41;;;;;;;6.67;2.53;;;;;;;10.70;100.00;100496.41;5065682;28;20198;-74
2022/06/21 00:17:13;;;;;;;2.40;2.20;;;;;;;10.73;100.00;100497.16;5061998;28;20209;-74
2022/06/21 00:19:41;;;;;;;7.17;2.27;;;;;;;10.65;100.00;100495.69;5060853;28;20198;-74
2022/06/21 00:22:12;;;;;;;2.60;2.30;;;;;;;10.62;100.00;100491.38;5063814;28;20229;-74
2022/06/21 00:24:38;;;;;;;3.43;2.10;;;;;;;10.55;100.00;100495.94;5058491;28;20197;-74
2022/06/21 00:27:10;;;;;;;3.63;2.20;;;;;;;10.53;100.00;100500.31;5060335;28;20623;-74
2022/06/21 00:29:37;;;;;;;2.30;2.10;;;;;;;10.47;100.00;100503.09;5063947;28;20240;-73
2022/06/21 00:32:03;;;;;;;3.17;2.50;;;;;;;10.42;100.00;100512.81;5064076;28;20222;-74
2022/06/21 00:34:31;;;;;;;3.57;2.50;;;;;;;10.39;100.00;100518.94;5066081;28;20580;-73
2022/06/21 00:37:00;;;;;;;6.90;2.30;;;;;;;10.45;100.00;100517.06;5063643;28;20245;-74
2022/06/21 00:39:27;;;;;;;2.10;2.00;;;;;;;10.41;100.00;100524.13;5060323;28;20200;-74
2022/06/21 00:41:55;;;;;;;4.40;2.57;;;;;;;10.39;100.00;100528.50;5061167;28;20231;-74
2022/06/21 00:44:28;;;;;;;7.33;2.30;;;;;;;10.46;100.00;100524.00;5064866;28;20202;-74
2022/06/21 00:47:00;;;;;;;3.07;2.30;;;;;;;10.33;100.00;100519.13;5059804;28;20459;-74
2022/06/21 00:49:30;;;;;;;2.40;2.20;;;;;;;10.39;100.00;100523.31;5058341;28;20202;-74
2022/06/21 00:52:05;;;;;;;4.70;2.13;;;;;;;10.27;100.00;100521.84;5061470;28;20196;-73
2022/06/21 00:54:38;;;;;;;2.47;2.17;;;;;;;10.20;100.00;100517.69;5060710;28;20196;-74
2022/06/21 00:57:11;;;;;;;5.00;2.07;;;;;;;10.17;100.00;100513.44;5060178;28;20350;-74
2022/06/21 00:59:38;;;;;;;4.50;2.33;;;;;;;10.22;100.00;100518.53;5064842;28;20210;-74
2022/06/21 01:02:07;;;;;;;2.60;2.27;;;;;;;10.17;100.00;100516.03;5058993;28;20243;-74
2022/06/21 01:04:37;;;;;;;2.13;2.00;;;;;;;10.15;100.00;100524.75;5060755;28;20212;-74
2022/06/21 01:07:08;;;;;;;2.30;1.83;;;;;;;10.09;100.00;100519.72;5060036;28;20204;-74
2022/06/21 01:09:37;;;;;;;4.07;2.00;;;;;;;10.10;100.00;100531.88;5057526;28;20205;-73
2022/06/21 01:12:10;;;;;;;2.40;1.90;;;;;;;10.20;100.00;100525.50;5057279;28;20218;-74
2022/06/21 01:14:40;;;;;;;2.43;1.90;;;;;;;10.13;100.00;100529.16;5060711;28;20201;-74
2022/06/21 01:17:10;;;;;;;2.20;1.97;;;;;;;10.03;100.00;100533.78;5062666;28;20552;-74
2022/06/21 01:19:41;;;;;;;2.97;2.00;;;;;;;10.01;100.00;100532.97;5060290;28;20197;-74
2022/06/21 01:22:24;;;;;;;4.03;1.97;;;;;;;9.94;100.00;100529.66;5063221;28;20240;-74
2022/06/21 01:25:05;;;;;;;2.40;2.10;;;;;;;9.95;100.00;100523.53;5059915;28;20212;-73
2022/06/21 01:27:32;;;;;;;3.17;2.60;;;;;;;10.03;100.00;100526.81;5060516;28;20201;-74
2022/06/21 01:29:59;;;;;;;2.30;2.10;;;;;;;9.99;100.00;100532.13;5058445;28;20208;-74
2022/06/21 01:32:25;;;;;;;2.40;2.20;;;;;;;9.99;100.00;100525.19;5060164;28;20643;-73
2022/06/21 01:34:54;;;;;;;4.93;2.70;;;;;;;9.94;100.00;100519.22;5061606;28;21332;-73
2022/06/21 01:37:26;;;;;;;6.77;2.53;;;;;;;9.92;100.00;100517.53;5059767;28;20196;-74
2022/06/21 01:39:56;;;;;;;2.07;1.87;;;;;;;9.94;100.00;100514.03;5064670;28;20216;-73
2022/06/21 01:42:27;;;;;;;4.20;2.17;;;;;;;9.97;100.00;100516.56;5058404;28;20251;-74
2022/06/21 01:45:00;;;;;;;4.17;2.10;;;;;;;9.97;100.00;100523.50;5061915;28;20204;-74
2022/06/21 01:47:32;;;;;;;4.07;2.33;;;;;;;9.96;100.00;100517.44;5063560;28;20204;-73
2022/06/21 01:50:03;;;;;;;2.50;2.30;;;;;;;9.80;100.00;100516.97;5059702;28;20204;-73
2022/06/21 01:52:35;;;;;;;4.20;2.10;;;;;;;10.01;100.00;100526.00;5058582;28;20412;-74
2022/06/21 01:55:07;;;;;;;2.37;2.13;;;;;;;10.03;100.00;100524.19;5062812;28;20211;-73
2022/06/21 01:57:34;;;;;;;2.77;2.57;;;;;;;9.94;100.00;100514.03;5054850;28;20205;-74
2022/06/21 02:00:04;;;;;;;5.63;2.53;;;;;;;10.02;100.00;100524.22;5063369;28;20291;-74
2022/06/21 02:02:36;;;;;;;3.03;2.40;;;;;;;10.10;100.00;100514.47;5059843;28;20714;-74
2022/06/21 02:05:06;;;;;;;4.37;2.17;;;;;;;9.99;100.00;100524.31;5056796;28;20556;-73
2022/06/21 02:07:38;;;;;;;2.57;2.17;;;;;;;9.98;100.00;100523.47;5058806;28;20572;-74
2022/06/21 02:10:13;;;;;;;4.77;2.43;;;;;;;10.12;100.00;100533.53;5061495;28;20211;-74
2022/06/21 02:12:44;;;;;;;2.60;2.37;;;;;;;10.00;100.00;100526.88;5049092;28;20287;-74
2022/06/21 02:15:24;;;;;;;3.60;2.63;;;;;;;9.83;100.00;100529.03;5059503;28;20195;-74
2022/06/21 02:17:52;;;;;;;3.13;2.57;;;;;;;9.86;100.00;100531.56;5058371;28;20208;-73
2022/06/21 02:20:23;;;;;;;4.53;2.90;;;;;;;9.71;100.00;100526.75;5060016;28;20672;-74
2022/06/21 02:22:50;;;;;;;2.60;2.30;;;;;;;9.74;100.00;100532.72;5058419;28;20232;-74
2022/06/21 02:25:19;;;;;;;2.60;2.40;;;;;;;10.08;100.00;100525.81;5059610;28;20557;-74
2022/06/21 02:27:46;;;;;;;5.23;2.60;;;;;;;9.86;100.00;100528.97;5058150;28;20207;-73
2022/06/21 02:30:18;;;;;;;4.60;2.20;;;;;;;9.78;100.00;100526.56;5053901;28;20211;-74
2022/06/21 02:32:46;;;;;;;3.97;2.70;;;;;;;9.76;100.00;100527.47;5057524;28;20700;-73
2022/06/21 02:35:21;;;;;;;2.57;2.37;;;;;;;9.89;100.00;100522.84;5056503;28;20222;-73
2022/06/21 02:37:49;;;;;;;2.93;2.53;;;;;;;9.55;100.00;100524.53;5057579;28;20206;-74
2022/06/21 02:40:20;;;;;;;3.73;3.00;;;;;;;9.45;100.00;100529.06;5060193;28;20212;-74
2022/06/21 02:42:49;;;;;;;3.60;2.77;;;;;;;9.58;100.00;100534.00;5056952;28;20245;-74
2022/06/21 02:45:26;;;;;;;3.83;2.80;;;;;;;9.54;100.00;100537.56;5054898;28;20203;-74
2022/06/21 02:47:55;;;;;;;3.43;2.50;;;;;;;9.51;100.00;100543.69;5061324;28;20265;-74
2022/06/21 02:50:32;;;;;;;3.07;2.77;;;;;;;9.44;100.00;100524.75;5054600;28;20203;-74
2022/06/21 02:53:01;;;;;;;3.43;2.93;;;;;;;9.44;100.00;100534.31;5057342;28;20218;-73
2022/06/21 02:55:36;;;;;;;4.97;2.90;;;;;;;9.34;100.00;100538.88;5057648;28;20429;-74
2022/06/21 02:58:07;;;;;;;4.93;3.00;;;;;;;9.38;100.00;100542.25;5056692;28;20721;-74
2022/06/21 03:00:35;;;;;;;4.93;3.00;;;;;;;9.37;100.00;100540.53;5057634;28;20780;-74
2022/06/21 03:03:05;;;;;;;3.43;3.13;;;;;;;9.29;100.00;100538.97;5060569;28;20234;-74
2022/06/21 03:05:34;;;;;;;6.60;3.07;;;;;;;9.34;100.00;100532.78;5059100;28;20212;-74
2022/06/21 03:08:05;;;;;;;4.17;2.60;;;;;;;9.32;100.00;100537.19;5058539;28;20211;-74
2022/06/21 03:10:36;;;;;;;3.83;3.47;;;;;;;9.52;100.00;100535.00;5061445;28;20198;-74
2022/06/21 03:13:10;;;;;;;6.17;2.90;;;;;;;9.47;100.00;100535.09;5037893;28;20223;-74
2022/06/21 03:15:39;;;;;;;3.60;2.97;;;;;;;9.49;100.00;100535.06;5060109;28;20202;-74
2022/06/21 03:18:08;;;;;;;3.83;3.23;;;;;;;9.56;100.00;100534.03;5060413;28;20206;-74
2022/06/21 03:20:35;;;;;;;3.23;2.77;;;;;;;9.55;100.00;100537.53;5059265;28;20192;-74
2022/06/21 03:23:03;;;;;;;8.03;3.50;;;;;;;9.49;100.00;100540.25;5059323;28;20247;-74
2022/06/21 03:25:39;;;;;;;4.73;3.17;;;;;;;9.53;100.00;100543.66;5061121;28;20213;-74
2022/06/21 03:28:21;;;;;;;7.13;3.70;;;;;;;9.66;100.00;100540.72;5061918;28;20875;-74
2022/06/21 03:30:53;;;;;;;3.27;2.97;;;;;;;9.56;100.00;100544.44;5056120;28;20193;-74
2022/06/21 03:33:20;;;;;;;5.27;3.57;;;;;;;9.63;100.00;100551.19;5072399;23;20743;-72
2022/06/21 03:35:47;;;;;;;5.43;3.53;;;;;;;9.72;100.00;100554.50;5058975;28;20586;-72
2022/06/21 03:38:13;;;;;;;5.93;3.50;;;;;;;9.76;100.00;100550.91;5058195;28;20232;-72
2022/06/21 03:43:30;;;;;;;5.63;3.00;;;;;;;9.89;100.00;100556.72;5058912;28;20753;-72
2022/06/21 03:46:02;;;;;;;4.17;3.30;;;;;;;10.05;100.00;100560.63;5061543;28;20201;-72
2022/06/21 03:48:34;;;;;;;7.30;3.03;;;;;;;10.06;100.00;100564.97;5060591;28;20558;-72
2022/06/21 03:51:05;;;;;;;4.33;2.93;;;;;;;10.15;100.00;100564.72;5054549;28;20209;-72
2022/06/21 03:53:36;;;;;;;6.03;3.13;;;;;;;10.27;100.00;100567.91;5062831;28;20224;-72
2022/06/21 03:56:06;;;;;;;5.30;2.63;;;;;;;10.29;100.00;100564.38;5057048;28;20201;-72
2022/06/21 03:58:46;;;;;;;3.57;2.90;;;;;;;10.37;100.00;100567.66;5058078;28;20202;-72
2022/06/21 04:01:20;;;;;;;3.43;2.80;;;;;;;10.45;100.00;100566.59;5057883;28;20731;-72
2022/06/21 04:03:53;;;;;;;4.20;2.80;;;;;;;10.62;100.00;100561.78;5058122;28;20218;-72
2022/06/21 04:06:25;;;;;;;3.30;2.67;;;;;;;10.73;100.00;100564.09;5055322;28;20206;-72
2022/06/21 04:09:00;;;;;;;5.80;3.20;;;;;;;10.82;100.00;100570.81;5059183;28;20738;-70
2022/06/21 04:11:34;;;;;;;5.87;2.90;;;;;;;10.79;100.00;100570.00;5055964;28;20201;-71
2022/06/21 04:14:07;;;;;;;3.13;2.80;;;;;;;10.92;100.00;100586.19;5056815;28;20229;-72
2022/06/21 04:16:42;;;;;;;5.77;2.77;;;;;;;10.98;100.00;100572.94;5053063;28;20206;-72
2022/06/21 04:19:14;;;;;;;4.33;2.70;;;;;;;11.04;100.00;100569.28;5054730;28;20205;-72
2022/06/21 04:21:48;;;;;;;5.77;2.60;;;;;;;11.11;100.00;100568.22;5051104;28;20222;-72
2022/06/21 04:24:24;;;;;;;4.70;2.90;;;;;;;11.14;100.00;100583.78;5057197;28;20222;-72
2022/06/21 04:26:56;;;;;;;2.90;2.50;;;;;;;11.16;100.00;100581.97;5054434;28;20206;-72
2022/06/21 04:29:29;;;;;;;2.90;2.60;;;;;;;11.44;100.00;100586.38;5053612;28;20240;-72
2022/06/21 04:32:02;;;;;;;4.17;2.63;;;;;;;11.40;100.00;100590.00;5049307;28;20260;-72
2022/06/21 04:34:33;;;;;;;3.03;2.37;;;;;;;11.52;100.00;100587.03;5056483;28;20219;-72
2022/06/21 04:37:06;;;;;;;2.40;2.20;;;;;;;11.59;100.00;100585.09;5058927;28;20210;-72
2022/06/21 04:39:38;;;;;;;2.80;2.13;;;;;;;11.77;100.00;100585.38;5063276;28;20207;-72
2022/06/21 04:42:11;;;;;;;5.50;2.63;;;;;;;11.80;100.00;100590.53;5057588;28;20757;-71
2022/06/21 04:44:42;;;;;;;7.17;2.53;;;;;;;11.85;100.00;100592.06;5055261;28;20273;-71
2022/06/21 04:47:18;;;;;;;3.63;2.87;;;;;;;11.88;100.00;100589.38;5055832;28;20217;-70
2022/06/21 04:49:49;;;;;;;2.27;2.07;;;;;;;12.05;100.00;100585.41;5055684;28;20198;-72
2022/06/21 04:52:21;;;;;;;2.60;2.40;;;;;;;12.19;100.00;100593.66;5057221;28;20214;-72
2022/06/21 04:54:47;;;;;;;6.30;2.93;;;;;;;12.06;100.00;100603.63;5056223;28;20681;-71
2022/06/21 04:57:16;;;;;;;6.13;2.57;;;;;;;12.26;100.00;100602.97;5055603;28;20576;-72
2022/06/21 04:59:45;;;;;;;3.37;2.80;;;;;;;12.26;100.00;100608.22;5055936;28;20189;-72
2022/06/21 05:02:18;;;;;;;3.77;2.40;;;;;;;12.32;100.00;100608.00;5056245;28;20199;-72
2022/06/21 05:04:46;;;;;;;3.60;2.13;;;;;;;12.36;100.00;100608.75;5057358;28;20228;-72
2022/06/21 05:07:17;;;;;;;3.67;2.10;;;;;;;12.51;100.00;100610.00;5054783;28;20203;-72
2022/06/21 05:09:44;;;;;;;4.17;2.47;;;;;;;12.55;100.00;100614.22;5057958;28;20281;-73
2022/06/21 05:12:15;;;;;;;3.57;2.20;;;;;;;12.61;100.00;100618.38;5057933;28;20757;-72
2022/06/21 05:14:46;;;;;;;5.00;2.30;;;;;;;12.79;100.00;100615.13;5056806;28;20216;-72
2022/06/21 05:17:17;;;;;;;2.77;2.47;;;;;;;12.84;100.00;100618.44;5051937;28;20202;-71
2022/06/21 05:19:48;;;;;;;5.53;2.40;;;;;;;12.87;100.00;100628.78;5059617;28;20687;-73
2022/06/21 05:22:20;;;;;;;7.43;2.23;;;;;;;12.85;100.00;100622.72;5053328;28;20536;-72
2022/06/21 05:24:47;;;;;;;3.20;2.33;;;;;;;12.95;100.00;100628.50;5052608;28;20680;-72
2022/06/21 05:27:19;;;;;;;4.70;2.37;;;;;;;12.92;100.00;100631.22;5056504;28;20217;-73
2022/06/21 05:29:51;;;;;;;3.33;2.83;;;;;;;12.93;100.00;100638.19;5054959;28;20200;-72
2022/06/21 05:32:22;;;;;;;3.10;1.90;;;;;;;13.03;100.00;100630.84;5055953;28;20385;-73
2022/06/21 05:34:52;;;;;;;6.90;2.50;;;;;;;13.15;100.00;100626.94;5060531;28;20672;-73
2022/06/21 05:37:30;;;;;;;2.47;2.13;;;;;;;13.24;100.00;100630.06;5059833;28;20964;-73
2022/06/21 05:39:59;;;;;;;7.03;2.13;;;;;;;13.26;100.00;100632.59;5055201;28;20209;-72
2022/06/21 05:42:28;;;;;;;11.40;2.30;;;;;;;13.22;100.00;100631.03;5058161;28;20208;-73
2022/06/21 05:45:01;;;;;;;3.03;2.03;;;;;;;13.30;100.00;100638.56;5056513;28;20668;-71
2022/06/21 05:47:37;;;;;;;4.50;2.30;;;;;;;13.37;100.00;100648.81;5052970;28;20315;-73
2022/06/21 05:50:08;;;;;;;3.33;2.20;;;;;;;13.47;100.00;100643.22;5059506;28;20207;-72
2022/06/21 05:52:36;;;;;;;3.67;2.30;;;;;;;13.47;100.00;100645.84;5058039;28;20702;-72
2022/06/21 05:55:08;;;;;;;2.37;2.10;;;;;;;13.52;100.00;100647.38;5063011;28;20213;-72
2022/06/21 05:57:39;;;;;;;4.87;2.33;;;;;;;13.76;100.00;100648.22;5056204;28;20197;-72
2022/06/21 06:00:12;;;;;;;4.03;2.03;;;;;;;13.82;100.00;100652.34;5055077;28;20232;-72
2022/06/21 06:02:46;;;;;;;6.20;2.40;;;;;;;13.72;100.00;100657.09;5062773;28;20221;-73
2022/06/21 06:05:18;;;;;;;3.33;2.17;;;;;;;13.58;100.00;100655.00;5062903;28;20512;-73
2022/06/21 06:07:48;;;;;;;3.43;2.10;;;;;;;13.62;100.00;100661.00;5056518;28;20198;-73
2022/06/21 06:10:17;;;;;;;2.37;2.07;;;;;;;13.76;100.00;100666.53;5060277;28;20207;-73
2022/06/21 06:12:48;;;;;;;2.70;2.10;;;;;;;13.88;100.00;100669.59;5058513;28;20225;-72
2022/06/21 06:15:22;;;;;;;3.60;2.20;;;;;;;13.96;100.00;100662.28;5062337;28;20620;-72
2022/06/21 06:17:54;;;;;;;5.67;2.30;;;;;;;14.11;100.00;100674.78;5065371;28;20206;-72
2022/06/21 06:20:28;;;;;;;4.20;2.40;;;;;;;14.23;100.00;100675.19;5062751;28;20208;-73
2022/06/21 06:22:58;;;;;;;4.87;2.00;;;;;;;14.41;100.00;100669.22;5061644;28;20218;-73
2022/06/21 06:25:31;;;;;;;4.43;2.53;;;;;;;14.44;100.00;100666.47;5057808;28;20569;-73
2022/06/21 06:28:03;;;;;;;3.20;2.23;;;;;;;14.52;100.00;100672.25;5057428;28;20193;-73
2022/06/21 06:30:36;;;;;;;2.00;1.80;;;;;;;14.47;100.00;100663.69;5057861;28;20199;-73
2022/06/21 06:33:15;;;;;;;3.40;2.00;;;;;;;14.47;100.00;100658.47;5055662;28;20226;-73
2022/06/21 06:35:43;;;;;;;4.13;2.13;;;;;;;14.44;100.00;100665.59;5060300;28;20203;-73
2022/06/21 06:38:13;;;;;;;2.77;2.00;;;;;;;14.48;100.00;100664.56;5061808;28;20207;-73
2022/06/21 06:40:44;;;;;;;7.00;2.00;;;;;;;14.53;100.00;100673.97;5058301;28;20199;-73
2022/06/21 06:43:16;;;;;;;2.97;2.20;;;;;;;14.77;100.00;100671.22;5059011;28;20230;-73
2022/06/21 06:45:43;;;;;;;3.77;1.93;;;;;;;14.73;100.00;100672.28;5054631;28;20757;-73
2022/06/21 06:48:22;;;;;;;4.10;2.50;;;;;;;14.64;100.00;100672.69;5057919;28;20209;-73
2022/06/21 06:50:54;;;;;;;2.13;1.93;;;;;;;14.64;100.00;100665.66;5058681;28;20678;-73
2022/06/21 06:53:29;;;;;;;5.37;2.20;;;;;;;14.74;100.00;100668.75;5054629;28;20232;-74
2022/06/21 06:56:00;;;;;;;2.37;1.70;;;;;;;14.77;100.00;100673.84;5056093;28;20205;-72
2022/06/21 06:58:33;;;;;;;6.37;2.10;;;;;;;14.74;99.98;100671.38;5060727;28;20188;-73
2022/06/21 07:01:03;;;;;;;4.33;2.00;;;;;;;14.89;100.00;100668.06;5056836;28;20202;-73
2022/06/21 07:03:36;;;;;;;3.13;1.77;;;;;;;15.10;100.00;100673.31;5060674;28;20636;-73
2022/06/21 07:06:07;;;;;;;2.30;1.57;;;;;;;15.21;99.62;100678.94;5056062;28;20207;-73
2022/06/21 07:08:38;;;;;;;5.13;1.70;;;;;;;15.26;97.07;100681.38;5061271;28;20201;-73
2022/06/21 07:11:14;;;;;;;6.67;1.80;;;;;;;15.42;97.34;100685.00;5056261;28;20209;-71
2022/06/21 07:13:40;;;;;;;3.97;1.80;;;;;;;15.46;95.44;100697.09;5059489;28;20225;-73
2022/06/21 07:16:12;;;;;;;3.60;1.90;;;;;;;15.52;94.11;100699.44;5062910;28;20211;-74
2022/06/21 07:18:46;;;;;;;5.80;1.77;;;;;;;15.58;93.71;100694.81;5058969;28;20280;-73
2022/06/21 07:21:13;;;;;;;3.67;1.60;;;;;;;15.69;95.26;100696.03;5056415;28;20194;-73
2022/06/21 07:23:40;;;;;;;5.80;1.90;;;;;;;15.79;94.68;100685.13;5061715;28;20219;-73
2022/06/21 07:26:12;;;;;;;2.10;1.90;;;;;;;15.91;95.40;100692.44;5055860;28;20623;-72
2022/06/21 07:28:44;;;;;;;4.37;2.10;;;;;;;15.95;95.92;100683.47;5057790;28;20203;-73
2022/06/21 07:31:16;;;;;;;3.43;2.00;;;;;;;16.05;92.59;100684.72;5061431;28;20686;-74
2022/06/21 07:33:48;;;;;;;2.30;1.80;;;;;;;16.22;93.72;100688.34;5055160;28;20225;-74
2022/06/21 07:36:20;;;;;;;4.30;1.90;;;;;;;16.33;90.35;100693.91;5060720;28;20237;-74
2022/06/21 07:38:52;;;;;;;3.37;2.10;;;;;;;16.44;91.43;100690.75;5063435;28;20195;-72
2022/06/21 07:41:25;;;;;;;2.57;1.80;;;;;;;16.56;90.35;100686.66;5060213;28;20206;-74
2022/06/21 07:43:56;;;;;;;3.63;1.80;;;;;;;16.63;87.28;100693.31;5058161;28;20221;-73
2022/06/21 07:46:29;;;;;;;4.40;1.57;;;;;;;16.69;87.31;100693.00;5058026;28;20524;-74
2022/06/21 07:49:04;;;;;;;4.60;1.70;;;;;;;16.79;84.93;100694.25;5053968;28;20199;-73
2022/06/21 07:51:35;;;;;;;3.30;1.53;;;;;;;16.81;86.00;100697.63;5059557;28;20208;-73
2022/06/21 07:54:07;;;;;;;1.57;1.47;;;;;;;16.89;83.53;100686.78;5061724;28;20219;-74
2022/06/21 07:56:39;;;;;;;2.60;1.33;;;;;;;16.86;80.13;100693.97;5055525;28;20216;-74
2022/06/21 07:59:15;;;;;;;2.33;1.43;;;;;;;16.83;80.85;100692.31;5057733;28;20191;-73
2022/06/21 08:07:24;;;;;;;3.23;1.50;;;;;;;17.16;81.24;100704.69;5055265;28;20765;-73
2022/06/21 08:09:56;;;;;;;2.00;1.40;;;;;;;17.21;78.72;100706.16;5060480;28;20212;-72
2022/06/21 08:12:22;;;;;;;3.47;1.73;;;;;;;17.15;76.92;100709.13;5060096;28;20205;-74
2022/06/21 08:14:49;;;;;;;1.70;1.23;;;;;;;17.17;78.14;100709.03;5061119;28;20256;-73
2022/06/21 08:17:25;;;;;;;3.03;1.60;;;;;;;17.25;78.08;100706.00;5064723;28;20611;-74
2022/06/21 08:20:00;;;;;;;2.33;1.20;;;;;;;17.15;76.88;100702.97;5059915;28;20519;-73
2022/06/21 08:22:33;;;;;;;4.03;1.57;;;;;;;17.37;75.94;100715.88;5064349;28;20209;-73
2022/06/21 08:25:08;;;;;;;3.53;1.43;;;;;;;17.45;74.76;100715.47;5065956;28;20704;-74
2022/06/21 08:27:42;;;;;;;6.27;2.10;;;;;;;17.48;72.73;100713.53;5056810;28;20189;-73
2022/06/21 08:30:13;;;;;;;3.90;1.33;;;;;;;17.69;71.71;100708.03;5063205;28;20469;-74
2022/06/21 08:32:51;;;;;;;3.20;1.57;;;;;;;17.76;73.36;100706.75;5057777;28;20226;-74
2022/06/21 08:35:25;;;;;;;2.40;1.43;;;;;;;17.76;76.35;100694.44;5059311;28;20198;-71
2022/06/21 08:37:58;;;;;;;2.97;1.60;;;;;;;17.91;73.91;100707.75;5064672;28;20685;-72
2022/06/21 08:40:41;;;;;;;1.80;1.40;;;;;;;17.86;71.58;100696.59;5064732;28;20691;-72
2022/06/21 08:43:45;;;;;;;1.40;1.03;;;;;;;18.16;75.55;100696.66;5057500;28;20218;-72
2022/06/21 08:46:58;;;;;;;3.43;1.53;;;;;;;18.27;70.31;100707.44;5056782;28;20686;-71
2022/06/21 08:50:05;;;;;;;4.80;1.10;;;;;;;18.27;69.76;100699.53;5059659;28;20215;-72
2022/06/21 08:52:55;;;;;;;1.60;1.30;;;;;;;18.25;67.47;100704.03;5030145;28;20681;-72
2022/06/21 08:55:28;;;;;;;1.90;1.10;;;;;;;18.43;71.58;100696.84;5059805;28;20199;-72
2022/06/21 08:58:07;;;;;;;1.40;1.10;;;;;;;18.46;67.03;100706.41;5055509;28;20203;-72
2022/06/21 09:00:39;;;;;;;3.43;1.37;;;;;;;18.47;65.97;100701.03;5045914;28;20214;-72
2022/06/21 09:03:20;;;;;;;2.03;1.20;;;;;;;18.46;65.17;100691.41;5058254;28;20730;-72
2022/06/21 09:06:01;;;;;;;2.83;1.23;;;;;;;18.58;64.98;100702.22;5059894;28;20585;-71
2022/06/21 09:08:42;;;;;;;2.33;1.30;;;;;;;18.60;66.21;100698.53;5059842;28;20206;-72
2022/06/21 09:11:24;;;;;;;1.60;1.50;;;;;;;18.66;65.25;100698.19;5061100;28;20198;-71
2022/06/21 09:14:06;;;;;;;2.37;1.00;;;;;;;18.76;62.05;100687.06;5057886;28;20249;-72
2022/06/21 09:16:43;;;;;;;1.37;1.20;;;;;;;18.66;61.30;100684.97;5054947;28;20205;-72
2022/06/21 09:19:23;;;;;;;1.30;1.20;;;;;;;18.91;64.46;100681.75;5058954;28;20708;-71
2022/06/21 09:21:58;;;;;;;1.90;1.20;;;;;;;19.07;64.57;100681.66;5056425;28;20202;-72
2022/06/21 09:24:39;;;;;;;1.03;0.97;;;;;;;19.19;63.55;100687.13;5061574;28;20226;-72
2022/06/21 09:27:10;;;;;;;1.43;1.27;;;;;;;19.31;63.15;100681.09;5057185;28;20207;-71
2022/06/21 09:29:48;;;;;;;2.13;1.00;;;;;;;19.37;57.23;100693.94;5060425;28;20547;-72
2022/06/21 09:32:26;;;;;;;1.30;1.20;;;;;;;19.42;59.57;100677.81;5057047;28;20210;-72
2022/06/21 09:35:09;;;;;;;3.70;1.20;;;;;;;19.61;59.32;100686.28;5068726;23;20235;-72
2022/06/21 09:37:49;;;;;;;1.93;0.90;;;;;;;19.79;58.09;100686.94;5058770;28;20202;-71
2022/06/21 09:40:24;;;;;;;2.10;1.20;;;;;;;19.83;55.13;100695.53;5065777;28;20209;-71
2022/06/21 09:42:59;;;;;;;2.00;0.90;;;;;;;19.77;53.92;100701.19;5059793;28;20527;-71
2022/06/21 09:45:32;;;;;;;2.03;1.10;;;;;;;19.59;53.93;100700.53;5044298;28;20199;-71
2022/06/21 09:48:08;;;;;;;1.33;1.07;;;;;;;19.87;56.61;100697.00;5046071;28;20214;-72
2022/06/21 09:50:47;;;;;;;3.20;1.03;;;;;;;19.78;52.21;100701.09;5047537;28;20673;-72
2022/06/21 09:53:21;;;;;;;1.80;1.07;;;;;;;19.90;55.27;100702.13;5052368;28;20218;-72
2022/06/21 09:56:00;;;;;;;1.23;1.00;;;;;;;19.96;53.18;100701.72;5045286;28;20203;-72
2022/06/21 09:58:32;;;;;;;1.27;1.07;;;;;;;20.01;53.06;100706.72;5047519;28;20664;-72
2022/06/21 10:01:07;;;;;;;1.20;1.00;;;;;;;20.09;52.91;100691.19;5040989;28;20294;-72
2022/06/21 10:03:42;;;;;;;1.77;0.90;;;;;;;20.20;51.61;100696.63;5048300;28;20237;-71
2022/06/21 10:06:15;;;;;;;1.33;0.90;;;;;;;20.30;55.68;100688.06;5044254;28;20199;-72
2022/06/21 10:08:54;;;;;;;3.43;1.20;;;;;;;20.34;54.33;100682.50;5043366;28;20594;-72
2022/06/21 10:11:29;;;;;;;3.00;0.70;;;;;;;20.54;56.29;100689.09;5047265;28;20198;-71
2022/06/21 10:14:17;;;;;;;1.43;0.90;;;;;;;20.44;51.83;100698.63;5046452;28;20224;-71
2022/06/21 10:16:56;;;;;;;0.90;0.80;;;;;;;20.71;53.86;100687.16;5048112;28;20210;-72
2022/06/21 10:19:36;;;;;;;1.53;1.00;;;;;;;20.77;50.14;100699.97;5044577;28;20214;-72
2022/06/21 10:22:30;;;;;;;1.70;1.00;;;;;;;20.87;51.12;100706.34;5051897;28;20203;-72
2022/06/21 10:25:19;;;;;;;1.90;0.80;;;;;;;20.66;48.57;100702.50;5040049;28;20210;-72
2022/06/21 10:28:00;;;;;;;1.40;0.80;;;;;;;20.61;48.72;100698.38;5043645;28;20204;-72
2022/06/21 10:30:49;;;;;;;1.53;0.77;;;;;;;20.67;47.69;100706.84;5045276;28;20531;-72
2022/06/21 10:33:36;;;;;;;1.73;0.90;;;;;;;20.61;47.20;100701.03;5047925;28;20227;-72
2022/06/21 10:36:15;;;;;;;1.93;0.77;;;;;;;20.69;48.43;100702.31;5056352;28;20214;-71
2022/06/21 10:39:02;;;;;;;0.80;0.77;;;;;;;20.76;51.04;100698.28;5043494;28;20214;-71
2022/06/21 10:42:46;;;;;;;1.43;0.90;;;;;;;20.46;51.70;100698.53;5042724;28;20199;-71
2022/06/21 10:45:05;;;;;;;2.07;1.10;;;;;;;20.83;53.23;100693.44;5046764;28;20642;-71
2022/06/21 10:47:46;;;;;;;1.63;1.07;;;;;;;21.07;52.63;100688.22;5041231;28;20199;-72
2022/06/21 10:50:30;;;;;;;3.10;0.83;;;;;;;21.15;52.05;100699.16;5047513;28;20222;-72
2022/06/21 10:53:09;;;;;;;1.00;0.90;;;;;;;21.14;50.68;100700.09;5043727;28;20226;-72
2022/06/21 10:55:49;;;;;;;0.73;0.73;;;;;;;21.21;48.79;100697.88;5043580;28;20221;-72
2022/06/21 10:58:40;;;;;;;1.37;1.00;;;;;;;21.48;49.73;100695.13;5047700;28;20201;-72
2022/06/21 11:01:21;;;;;;;1.50;0.93;;;;;;;21.45;50.34;100697.97;5048412;28;20211;-72
2022/06/21 11:04:25;;;;;;;1.17;0.80;;;;;;;21.48;49.16;100705.75;5025407;28;20222;-72
2022/06/21 11:06:59;;;;;;;1.03;0.83;;;;;;;21.55;49.30;100701.69;5036071;28;20237;-72
2022/06/21 11:09:33;;;;;;;3.53;0.80;;;;;;;21.66;50.65;100693.81;5048420;28;20206;-72
2022/06/21 11:14:56;;;;;;;1.80;0.90;;;;;;;21.75;47.55;100713.53;5042916;28;20223;-72
2022/06/21 11:17:32;;;;;;;1.13;0.80;;;;;;;21.85;48.54;100703.94;5026841;28;20214;-71
2022/06/21 11:20:04;;;;;;;2.00;0.90;;;;;;;21.99;48.62;100705.63;5050763;28;20408;-72
2022/06/21 11:22:43;;;;;;;1.20;1.00;;;;;;;21.79;46.07;100712.34;5049815;28;20202;-72
2022/06/21 11:25:22;;;;;;;1.20;1.00;;;;;;;21.86;48.18;100702.13;5048349;28;20206;-72
2022/06/21 11:28:13;;;;;;;1.60;0.87;;;;;;;21.97;48.33;100701.34;5043114;28;20454;-72
2022/06/21 11:30:48;;;;;;;1.03;0.77;;;;;;;22.13;49.35;100694.81;5046254;28;20198;-72
2022/06/21 11:33:24;;;;;;;1.73;0.93;;;;;;;22.29;48.71;100689.25;5047624;28;20229;-72
2022/06/21 11:35:59;;;;;;;1.00;0.70;;;;;;;22.44;47.86;100681.09;5043485;28;20461;-72
2022/06/21 11:38:41;;;;;;;1.07;0.90;;;;;;;22.37;45.18;100693.13;5044113;28;20675;-72
2022/06/21 11:42:03;;;;;;;0.70;0.70;;;;;;;22.20;47.51;100681.94;5042547;28;20199;-72
2022/06/21 11:44:12;;;;;;;0.93;0.80;;;;;;;22.08;46.44;100698.78;5044528;28;20532;-72
2022/06/21 11:46:42;;;;;;;1.37;0.90;;;;;;;22.27;44.36;100695.66;5044818;28;20202;-72
2022/06/21 11:49:33;;;;;;;1.13;0.73;;;;;;;22.46;46.25;100687.13;5046581;28;20207;-72
2022/06/21 11:52:25;;;;;;;1.43;0.77;;;;;;;22.70;47.61;100681.78;5042247;28;20207;-72
2022/06/21 11:55:03;;;;;;;2.37;1.00;;;;;;;22.58;45.62;100680.06;5050260;28;20211;-72
2022/06/21 11:57:39;;;;;;;2.87;0.60;;;;;;;22.45;45.04;100680.16;5047173;28;20576;-73
2022/06/21 12:00:11;;;;;;;1.87;1.10;;;;;;;22.39;47.48;100680.59;5048835;28;20198;-73
2022/06/21 12:02:45;;;;;;;1.27;0.77;;;;;;;22.41;46.95;100684.84;5049421;28;20199;-72
2022/06/21 12:05:26;;;;;;;2.23;1.07;;;;;;;22.07;44.99;100689.94;5050221;28;20456;-73